sensor_id;sensor_type;location;lat;lon;timestamp;pressure;altitude;pressure_sealevel;temperature;humidity
72210;BME280;60113;48.762;12.302;2023-04-15T00:02:22;96085.22;;;3.82;94.93
72210;BME280;60113;48.762;12.302;2023-04-15T00:04:48;96082.53;;;3.83;93.40
72210;BME280;60113;48.762;12.302;2023-04-15T00:07:13;96079.00;;;3.84;92.93
72210;BME280;60113;48.762;12.302;2023-04-15T00:09:40;96082.31;;;3.86;94.85
72210;BME280;60113;48.762;12.302;2023-04-15T00:12:06;96074.63;;;3.85;94.27
72210;BME280;60113;48.762;12.302;2023-04-15T00:14:36;96074.63;;;3.85;94.99
72210;BME280;60113;48.762;12.302;2023-04-15T00:17:02;96070.38;;;3.84;94.84
72210;BME280;60113;48.762;12.302;2023-04-15T00:19:29;96067.03;;;3.82;94.13
72210;BME280;60113;48.762;12.302;2023-04-15T00:21:55;96071.31;;;3.83;93.96
72210;BME280;60113;48.762;12.302;2023-04-15T00:24:20;96062.69;;;3.82;95.24
72210;BME280;60113;48.762;12.302;2023-04-15T00:26:46;96064.44;;;3.82;94.29
72210;BME280;60113;48.762;12.302;2023-04-15T00:29:12;96063.53;;;3.83;94.29
72210;BME280;60113;48.762;12.302;2023-04-15T00:31:46;96058.31;;;3.83;95.32
72210;BME280;60113;48.762;12.302;2023-04-15T00:34:12;96062.69;;;3.82;94.16
72210;BME280;60113;48.762;12.302;2023-04-15T00:36:37;96055.72;;;3.83;94.77
72210;BME280;60113;48.762;12.302;2023-04-15T00:39:03;96054.88;;;3.82;94.32
72210;BME280;60113;48.762;12.302;2023-04-15T00:41:29;96051.25;;;3.85;94.00
72210;BME280;60113;48.762;12.302;2023-04-15T00:43:55;96053.63;;;3.88;94.51
72210;BME280;60113;48.762;12.302;2023-04-15T00:46:21;96051.13;;;3.86;93.97
72210;BME280;60113;48.762;12.302;2023-04-15T00:48:47;96054.69;;;3.85;93.20
72210;BME280;60113;48.762;12.302;2023-04-15T00:51:13;96058.22;;;3.84;93.61
72210;BME280;60113;48.762;12.302;2023-04-15T00:53:51;96050.53;;;3.83;94.32
72210;BME280;60113;48.762;12.302;2023-04-15T00:56:22;96049.69;;;3.82;92.64
72210;BME280;60113;48.762;12.302;2023-04-15T00:58:50;96046.25;;;3.82;94.24
72210;BME280;60113;48.762;12.302;2023-04-15T01:01:19;96041.06;;;3.82;93.44
72210;BME280;60113;48.762;12.302;2023-04-15T01:03:46;96040.13;;;3.83;93.09
72210;BME280;60113;48.762;12.302;2023-04-15T01:06:24;96049.59;;;3.84;93.42
72210;BME280;60113;48.762;12.302;2023-04-15T01:08:49;96058.31;;;3.83;93.66
72210;BME280;60113;48.762;12.302;2023-04-15T01:11:15;96051.34;;;3.83;93.74
72210;BME280;60113;48.762;12.302;2023-04-15T01:13:51;96050.44;;;3.84;93.92
72210;BME280;60113;48.762;12.302;2023-04-15T01:16:37;96064.22;;;3.85;93.33
72210;BME280;60113;48.762;12.302;2023-04-15T01:19:06;96066.72;;;3.86;93.13
72210;BME280;60113;48.762;12.302;2023-04-15T01:21:36;96061.41;;;3.88;93.30
72210;BME280;60113;48.762;12.302;2023-04-15T01:24:06;96065.50;;;3.92;94.58
72210;BME280;60113;48.762;12.302;2023-04-15T01:26:42;96060.09;;;3.95;94.49
72210;BME280;60113;48.762;12.302;2023-04-15T01:29:19;96056.66;;;3.95;94.48
72210;BME280;60113;48.762;12.302;2023-04-15T01:31:52;96053.72;;;3.99;94.14
72210;BME280;60113;48.762;12.302;2023-04-15T01:34:19;96045.94;;;3.99;94.87
72210;BME280;60113;48.762;12.302;2023-04-15T01:36:47;96043.44;;;3.98;93.38
72210;BME280;60113;48.762;12.302;2023-04-15T01:39:35;96044.03;;;4.02;94.27
72210;BME280;60113;48.762;12.302;2023-04-15T01:42:01;96042.50;;;3.99;93.61
72210;BME280;60113;48.762;12.302;2023-04-15T01:44:26;96047.59;;;4.00;93.88
72210;BME280;60113;48.762;12.302;2023-04-15T01:46:52;96041.44;;;4.02;93.67
72210;BME280;60113;48.762;12.302;2023-04-15T01:49:17;96056.22;;;4.01;93.37
72210;BME280;60113;48.762;12.302;2023-04-15T01:51:43;96052.78;;;4.00;92.59
72210;BME280;60113;48.762;12.302;2023-04-15T01:54:09;96051.97;;;4.00;92.48
72210;BME280;60113;48.762;12.302;2023-04-15T01:56:34;96048.53;;;3.99;93.51
72210;BME280;60113;48.762;12.302;2023-04-15T01:58:59;96055.59;;;3.97;93.09
72210;BME280;60113;48.762;12.302;2023-04-15T02:01:25;96052.19;;;3.97;92.85
72210;BME280;60113;48.762;12.302;2023-04-15T02:03:51;96055.59;;;3.97;94.31
72210;BME280;60113;48.762;12.302;2023-04-15T02:06:16;96043.66;;;3.95;93.60
72210;BME280;60113;48.762;12.302;2023-04-15T02:08:42;96045.41;;;3.94;93.65
72210;BME280;60113;48.762;12.302;2023-04-15T02:11:08;96043.66;;;3.95;94.37
72210;BME280;60113;48.762;12.302;2023-04-15T02:13:33;96042.81;;;3.94;94.54
72210;BME280;60113;48.762;12.302;2023-04-15T02:15:59;96041.16;;;3.93;94.25
72210;BME280;60113;48.762;12.302;2023-04-15T02:18:24;96037.63;;;3.94;94.46
72210;BME280;60113;48.762;12.302;2023-04-15T02:20:51;96040.31;;;3.93;94.35
72210;BME280;60113;48.762;12.302;2023-04-15T02:23:16;96041.16;;;3.93;94.47
72210;BME280;60113;48.762;12.302;2023-04-15T02:25:42;96035.97;;;3.93;94.12
72210;BME280;60113;48.762;12.302;2023-04-15T02:28:08;96039.50;;;3.92;95.14
72210;BME280;60113;48.762;12.302;2023-04-15T02:30:33;96035.13;;;3.93;95.26
72210;BME280;60113;48.762;12.302;2023-04-15T02:36:39;96038.66;;;3.92;94.73
72210;BME280;60113;48.762;12.302;2023-04-15T02:39:08;96045.41;;;3.94;95.71
72210;BME280;60113;48.762;12.302;2023-04-15T02:41:52;96040.41;;;3.91;95.65
72210;BME280;60113;48.762;12.302;2023-04-15T02:44:17;96042.22;;;3.91;94.73
72210;BME280;60113;48.762;12.302;2023-04-15T02:46:46;96044.69;;;3.92;95.25
72210;BME280;60113;48.762;12.302;2023-04-15T02:49:15;96037.63;;;3.94;95.72
72210;BME280;60113;48.762;12.302;2023-04-15T02:51:43;96037.50;;;3.96;95.26
72210;BME280;60113;48.762;12.302;2023-04-15T02:54:43;96040.09;;;3.96;95.14
72210;BME280;60113;48.762;12.302;2023-04-15T02:57:08;96040.94;;;3.96;95.22
72210;BME280;60113;48.762;12.302;2023-04-15T02:59:38;96040.09;;;3.96;94.46
72210;BME280;60113;48.762;12.302;2023-04-15T03:02:38;96040.84;;;3.98;95.54
72210;BME280;60113;48.762;12.302;2023-04-15T03:05:22;96040.22;;;3.94;95.86
72210;BME280;60113;48.762;12.302;2023-04-15T03:07:50;96036.69;;;3.95;95.82
72210;BME280;60113;48.762;12.302;2023-04-15T03:10:15;96039.50;;;3.92;96.61
72210;BME280;60113;48.762;12.302;2023-04-15T03:12:41;96044.81;;;3.91;95.40
72210;BME280;60113;48.762;12.302;2023-04-15T03:15:07;96037.22;;;3.87;94.81
72210;BME280;60113;48.762;12.302;2023-04-15T03:17:33;96027.75;;;3.86;95.30
72210;BME280;60113;48.762;12.302;2023-04-15T03:20:00;96037.53;;;3.83;95.72
72210;BME280;60113;48.762;12.302;2023-04-15T03:22:25;96037.53;;;3.83;96.09
72210;BME280;60113;48.762;12.302;2023-04-15T03:24:50;96040.25;;;3.81;95.86
72210;BME280;60113;48.762;12.302;2023-04-15T03:27:22;96029.94;;;3.80;95.90
72210;BME280;60113;48.762;12.302;2023-04-15T03:29:50;96041.16;;;3.80;97.58
72210;BME280;60113;48.762;12.302;2023-04-15T03:32:16;96041.47;;;3.75;96.90
72210;BME280;60113;48.762;12.302;2023-04-15T03:34:42;96039.72;;;3.76;96.45
72210;BME280;60113;48.762;12.302;2023-04-15T03:37:22;96038.56;;;3.80;96.98
72210;BME280;60113;48.762;12.302;2023-04-15T03:39:54;96039.72;;;3.76;95.56
72210;BME280;60113;48.762;12.302;2023-04-15T03:42:20;96031.19;;;3.74;97.55
72210;BME280;60113;48.762;12.302;2023-04-15T03:44:46;96040.97;;;3.70;98.13
72210;BME280;60113;48.762;12.302;2023-04-15T03:47:11;96039.50;;;3.66;98.36
72210;BME280;60113;48.762;12.302;2023-04-15T03:49:36;96039.50;;;3.66;98.80
72210;BME280;60113;48.762;12.302;2023-04-15T03:52:02;96022.25;;;3.65;99.47
72210;BME280;60113;48.762;12.302;2023-04-15T03:54:27;96031.09;;;3.62;99.22
72210;BME280;60113;48.762;12.302;2023-04-15T03:56:53;96029.41;;;3.61;98.84
72210;BME280;60113;48.762;12.302;2023-04-15T03:59:18;96026.59;;;3.65;100.00
72210;BME280;60113;48.762;12.302;2023-04-15T04:01:44;96023.41;;;3.61;99.12
72210;BME280;60113;48.762;12.302;2023-04-15T04:04:09;96036.38;;;3.61;100.00
72210;BME280;60113;48.762;12.302;2023-04-15T04:06:35;96034.91;;;3.57;99.92
72210;BME280;60113;48.762;12.302;2023-04-15T04:09:04;96037.63;;;3.55;99.10
72210;BME280;60113;48.762;12.302;2023-04-15T04:11:47;96034.31;;;3.53;97.79
72210;BME280;60113;48.762;12.302;2023-04-15T04:14:32;96043.84;;;3.53;97.69
72210;BME280;60113;48.762;12.302;2023-04-15T04:16:57;96045.63;;;3.52;100.00
72210;BME280;60113;48.762;12.302;2023-04-15T04:19:23;96047.50;;;3.50;100.00
72210;BME280;60113;48.762;12.302;2023-04-15T04:21:48;96048.31;;;3.50;100.00
72210;BME280;60113;48.762;12.302;2023-04-15T04:24:13;96048.50;;;3.47;100.00
72210;BME280;60113;48.762;12.302;2023-04-15T04:26:39;96039.81;;;3.48;100.00
72210;BME280;60113;48.762;12.302;2023-04-15T04:29:04;96055.28;;;3.50;100.00
72210;BME280;60113;48.762;12.302;2023-04-15T04:31:30;96054.44;;;3.49;100.00
72210;BME280;60113;48.762;12.302;2023-04-15T04:34:02;96051.31;;;3.44;100.00
72210;BME280;60113;48.762;12.302;2023-04-15T04:36:27;96061.00;;;3.42;100.00
72210;BME280;60113;48.762;12.302;2023-04-15T04:38:53;96062.56;;;3.45;100.00
72210;BME280;60113;48.762;12.302;2023-04-15T04:41:30;96061.59;;;3.46;100.00
72210;BME280;60113;48.762;12.302;2023-04-15T04:43:59;96067.94;;;3.42;100.00
72210;BME280;60113;48.762;12.302;2023-04-15T04:46:24;96064.19;;;3.46;100.00
72210;BME280;60113;48.762;12.302;2023-04-15T04:48:56;96076.47;;;3.44;100.00
72210;BME280;60113;48.762;12.302;2023-04-15T04:51:21;96067.84;;;3.43;100.00
72210;BME280;60113;48.762;12.302;2023-04-15T04:53:47;96073.97;;;3.42;100.00
72210;BME280;60113;48.762;12.302;2023-04-15T04:56:12;96081.78;;;3.42;100.00
72210;BME280;60113;48.762;12.302;2023-04-15T04:58:50;96074.59;;;3.46;100.00
72210;BME280;60113;48.762;12.302;2023-04-15T05:01:34;96075.63;;;3.43;100.00
72210;BME280;60113;48.762;12.302;2023-04-15T05:04:00;96075.75;;;3.42;100.00
72210;BME280;60113;48.762;12.302;2023-04-15T05:06:25;96081.38;;;3.48;100.00
72210;BME280;60113;48.762;12.302;2023-04-15T05:09:18;96075.75;;;3.42;100.00
72210;BME280;60113;48.762;12.302;2023-04-15T05:11:43;96085.38;;;3.40;100.00
72210;BME280;60113;48.762;12.302;2023-04-15T05:14:21;96082.59;;;3.43;100.00
72210;BME280;60113;48.762;12.302;2023-04-15T05:17:06;96077.59;;;3.40;100.00
72210;BME280;60113;48.762;12.302;2023-04-15T05:19:31;96085.38;;;3.40;100.00
72210;BME280;60113;48.762;12.302;2023-04-15T05:21:57;96058.59;;;3.39;100.00
72210;BME280;60113;48.762;12.302;2023-04-15T05:24:22;96075.09;;;3.38;100.00
72210;BME280;60113;48.762;12.302;2023-04-15T05:26:51;96084.97;;;3.33;100.00
72210;BME280;60113;48.762;12.302;2023-04-15T05:29:16;96078.03;;;3.33;100.00
72210;BME280;60113;48.762;12.302;2023-04-15T05:32:00;96081.53;;;3.32;100.00
72210;BME280;60113;48.762;12.302;2023-04-15T05:34:44;96080.91;;;3.29;100.00
72210;BME280;60113;48.762;12.302;2023-04-15T05:37:34;96083.31;;;3.32;100.00
72210;BME280;60113;48.762;12.302;2023-04-15T05:40:05;96081.84;;;3.28;100.00
72210;BME280;60113;48.762;12.302;2023-04-15T05:42:31;96079.25;;;3.28;100.00
72210;BME280;60113;48.762;12.302;2023-04-15T05:44:56;96079.34;;;3.26;100.00
72210;BME280;60113;48.762;12.302;2023-04-15T05:47:54;96079.97;;;3.30;100.00
72210;BME280;60113;48.762;12.302;2023-04-15T05:50:41;96068.03;;;3.27;100.00
72210;BME280;60113;48.762;12.302;2023-04-15T05:53:07;96076.13;;;3.22;100.00
72210;BME280;60113;48.762;12.302;2023-04-15T05:55:33;96075.38;;;3.20;100.00
72210;BME280;60113;48.762;12.302;2023-04-15T05:58:13;96078.81;;;3.21;100.00
72210;BME280;60113;48.762;12.302;2023-04-15T06:00:58;96072.88;;;3.19;100.00
72210;BME280;60113;48.762;12.302;2023-04-15T06:03:23;96081.63;;;3.18;100.00
72210;BME280;60113;48.762;12.302;2023-04-15T06:06:08;96084.72;;;3.23;100.00
72210;BME280;60113;48.762;12.302;2023-04-15T06:08:52;96079.63;;;3.21;100.00
72210;BME280;60113;48.762;12.302;2023-04-15T06:11:20;96089.81;;;3.24;100.00
72210;BME280;60113;48.762;12.302;2023-04-15T06:13:49;96084.53;;;3.26;100.00
72210;BME280;60113;48.762;12.302;2023-04-15T06:16:33;96080.19;;;3.27;100.00
72210;BME280;60113;48.762;12.302;2023-04-15T06:19:00;96094.91;;;3.26;100.00
72210;BME280;60113;48.762;12.302;2023-04-15T06:21:26;96079.25;;;3.28;100.00
72210;BME280;60113;48.762;12.302;2023-04-15T06:23:54;96085.38;;;3.27;100.00
72210;BME280;60113;48.762;12.302;2023-04-15T06:26:39;96088.63;;;3.30;100.00
72210;BME280;60113;48.762;12.302;2023-04-15T06:29:08;96091.00;;;3.33;100.00
72210;BME280;60113;48.762;12.302;2023-04-15T06:31:39;96084.44;;;3.28;100.00
72210;BME280;60113;48.762;12.302;2023-04-15T06:34:05;96096.31;;;3.32;100.00
72210;BME280;60113;48.762;12.302;2023-04-15T06:36:30;96089.53;;;3.29;100.00
72210;BME280;60113;48.762;12.302;2023-04-15T06:38:56;96091.81;;;3.34;100.00
72210;BME280;60113;48.762;12.302;2023-04-15T06:41:22;96092.97;;;3.30;100.00
72210;BME280;60113;48.762;12.302;2023-04-15T06:43:47;96091.00;;;3.33;100.00
72210;BME280;60113;48.762;12.302;2023-04-15T06:46:13;96096.31;;;3.32;100.00
72210;BME280;60113;48.762;12.302;2023-04-15T06:48:38;96099.72;;;3.32;100.00
72210;BME280;60113;48.762;12.302;2023-04-15T06:51:41;96104.59;;;3.37;100.00
72210;BME280;60113;48.762;12.302;2023-04-15T06:54:12;96097.84;;;3.34;100.00
72210;BME280;60113;48.762;12.302;2023-04-15T06:56:38;96096.31;;;3.32;100.00
72210;BME280;60113;48.762;12.302;2023-04-15T06:59:34;96106.25;;;3.38;100.00
72210;BME280;60113;48.762;12.302;2023-04-15T07:02:21;96104.50;;;3.38;100.00
72210;BME280;60113;48.762;12.302;2023-04-15T07:04:53;96103.66;;;3.38;100.00
72210;BME280;60113;48.762;12.302;2023-04-15T07:07:32;96095.56;;;3.43;100.00
72210;BME280;60113;48.762;12.302;2023-04-15T07:10:16;96100.56;;;3.46;100.00
72210;BME280;60113;48.762;12.302;2023-04-15T07:12:42;96098.81;;;3.46;100.00
72210;BME280;60113;48.762;12.302;2023-04-15T07:15:07;96089.88;;;3.50;100.00
72210;BME280;60113;48.762;12.302;2023-04-15T07:17:45;96106.19;;;3.53;100.00
72210;BME280;60113;48.762;12.302;2023-04-15T07:20:32;96109.44;;;3.56;100.00
72210;BME280;60113;48.762;12.302;2023-04-15T07:23:16;96108.50;;;3.57;100.00
72210;BME280;60113;48.762;12.302;2023-04-15T07:25:42;96111.63;;;3.62;100.00
72210;BME280;60113;48.762;12.302;2023-04-15T07:28:08;96109.75;;;3.65;100.00
72210;BME280;60113;48.762;12.302;2023-04-15T07:30:33;96111.13;;;3.70;100.00
72210;BME280;60113;48.762;12.302;2023-04-15T07:33:11;96106.63;;;3.72;100.00
72210;BME280;60113;48.762;12.302;2023-04-15T07:35:48;96102.06;;;3.76;100.00
72210;BME280;60113;48.762;12.302;2023-04-15T07:38:17;96108.91;;;3.77;100.00
72210;BME280;60113;48.762;12.302;2023-04-15T07:40:43;96108.81;;;3.79;100.00
72210;BME280;60113;48.762;12.302;2023-04-15T07:43:36;96104.38;;;3.81;100.00
72210;BME280;60113;48.762;12.302;2023-04-15T07:46:20;96104.56;;;3.78;100.00
72210;BME280;60113;48.762;12.302;2023-04-15T07:48:45;96106.31;;;3.77;100.00
72210;BME280;60113;48.762;12.302;2023-04-15T07:51:11;96110.31;;;3.83;100.00
72210;BME280;60113;48.762;12.302;2023-04-15T07:53:49;96117.25;;;3.82;100.00
72210;BME280;60113;48.762;12.302;2023-04-15T07:56:20;96114.66;;;3.82;100.00
72210;BME280;60113;48.762;12.302;2023-04-15T07:58:46;96111.22;;;3.82;100.00
72210;BME280;60113;48.762;12.302;2023-04-15T08:01:11;96115.41;;;3.84;100.00
72210;BME280;60113;48.762;12.302;2023-04-15T08:03:57;96118.09;;;3.83;100.00
72210;BME280;60113;48.762;12.302;2023-04-15T08:06:41;96126.50;;;3.86;100.00
72210;BME280;60113;48.762;12.302;2023-04-15T08:09:10;96124.00;;;3.85;100.00
72210;BME280;60113;48.762;12.302;2023-04-15T08:11:36;96123.28;;;3.83;100.00
72210;BME280;60113;48.762;12.302;2023-04-15T08:14:01;96119.00;;;3.82;100.00
72210;BME280;60113;48.762;12.302;2023-04-15T08:16:27;96125.78;;;3.84;100.00
72210;BME280;60113;48.762;12.302;2023-04-15T08:19:08;96129.19;;;3.85;100.00
72210;BME280;60113;48.762;12.302;2023-04-15T08:22:16;96134.00;;;3.91;100.00
72210;BME280;60113;48.762;12.302;2023-04-15T08:25:00;96132.53;;;3.87;100.00
72210;BME280;60113;48.762;12.302;2023-04-15T08:27:29;96138.56;;;3.87;100.00
72210;BME280;60113;48.762;12.302;2023-04-15T08:30:13;96145.53;;;3.87;100.00
72210;BME280;60113;48.762;12.302;2023-04-15T08:33:02;96144.59;;;3.88;100.00
72210;BME280;60113;48.762;12.302;2023-04-15T08:35:27;96141.19;;;3.87;100.00
72210;BME280;60113;48.762;12.302;2023-04-15T08:37:53;96146.28;;;3.89;100.00
72210;BME280;60113;48.762;12.302;2023-04-15T08:40:19;96145.13;;;3.93;100.00
72210;BME280;60113;48.762;12.302;2023-04-15T08:42:51;96144.06;;;3.96;100.00
72210;BME280;60113;48.762;12.302;2023-04-15T08:45:18;96144.19;;;3.94;100.00
72210;BME280;60113;48.762;12.302;2023-04-15T08:47:45;96150.00;;;3.98;100.00
72210;BME280;60113;48.762;12.302;2023-04-15T08:50:15;96151.66;;;3.99;100.00
72210;BME280;60113;48.762;12.302;2023-04-15T08:52:59;96150.63;;;4.02;100.00
72210;BME280;60113;48.762;12.302;2023-04-15T08:55:44;96158.31;;;4.03;100.00
72210;BME280;60113;48.762;12.302;2023-04-15T08:58:44;96154.81;;;4.04;100.00
72210;BME280;60113;48.762;12.302;2023-04-15T09:01:22;96156.47;;;4.05;99.07
72210;BME280;60113;48.762;12.302;2023-04-15T09:03:55;96153.84;;;4.05;100.00
72210;BME280;60113;48.762;12.302;2023-04-15T09:06:21;96158.97;;;4.07;100.00
72210;BME280;60113;48.762;12.302;2023-04-15T09:08:48;96158.00;;;4.08;100.00
72210;BME280;60113;48.762;12.302;2023-04-15T09:11:14;96161.25;;;4.11;99.36
72210;BME280;60113;48.762;12.302;2023-04-15T09:13:42;96161.88;;;4.15;99.35
72210;BME280;60113;48.762;12.302;2023-04-15T09:16:07;96164.28;;;4.18;99.97
72210;BME280;60113;48.762;12.302;2023-04-15T09:18:48;96165.94;;;4.19;99.75
72210;BME280;60113;48.762;12.302;2023-04-15T09:21:33;96171.88;;;4.21;99.08
72210;BME280;60113;48.762;12.302;2023-04-15T09:23:59;96169.97;;;4.23;100.00
72210;BME280;60113;48.762;12.302;2023-04-15T09:26:36;96172.69;;;4.22;99.40
72210;BME280;60113;48.762;12.302;2023-04-15T09:29:09;96169.97;;;4.23;100.00
72210;BME280;60113;48.762;12.302;2023-04-15T09:32:12;96177.88;;;4.22;99.71
72210;BME280;60113;48.762;12.302;2023-04-15T09:34:38;96173.63;;;4.21;100.00
72210;BME280;60113;48.762;12.302;2023-04-15T09:37:04;96180.47;;;4.22;100.00
72210;BME280;60113;48.762;12.302;2023-04-15T09:39:49;96181.97;;;4.26;100.00
72210;BME280;60113;48.762;12.302;2023-04-15T09:42:56;96180.91;;;4.29;99.39
72210;BME280;60113;48.762;12.302;2023-04-15T09:45:23;96185.91;;;4.32;98.79
72210;BME280;60113;48.762;12.302;2023-04-15T09:48:22;96194.44;;;4.34;97.87
72210;BME280;60113;48.762;12.302;2023-04-15T09:50:49;96191.75;;;4.35;98.68
72210;BME280;60113;48.762;12.302;2023-04-15T09:53:16;96185.69;;;4.35;98.34
72210;BME280;60113;48.762;12.302;2023-04-15T09:56:07;96179.97;;;4.43;98.15
72210;BME280;60113;48.762;12.302;2023-04-15T09:58:57;96188.19;;;4.49;99.00
72210;BME280;60113;48.762;12.302;2023-04-15T10:01:28;96184.13;;;4.58;98.93
72210;BME280;60113;48.762;12.302;2023-04-15T10:03:57;96185.34;;;4.66;99.40
72210;BME280;60113;48.762;12.302;2023-04-15T10:06:48;96179.00;;;4.70;97.96
72210;BME280;60113;48.762;12.302;2023-04-15T10:09:34;96183.56;;;4.79;98.90
72210;BME280;60113;48.762;12.302;2023-04-15T10:12:01;96175.22;;;4.87;99.05
72210;BME280;60113;48.762;12.302;2023-04-15T10:14:30;96182.25;;;4.98;99.06
72210;BME280;60113;48.762;12.302;2023-04-15T10:20:39;96176.63;;;5.04;97.78
72210;BME280;60113;48.762;12.302;2023-04-15T10:23:24;96178.09;;;5.08;97.16
72210;BME280;60113;48.762;12.302;2023-04-15T10:25:51;96182.25;;;5.11;98.95
72210;BME280;60113;48.762;12.302;2023-04-15T10:28:20;96177.34;;;5.06;96.55
72210;BME280;60113;48.762;12.302;2023-04-15T10:30:49;96183.00;;;5.00;97.10
72210;BME280;60113;48.762;12.302;2023-04-15T10:33:16;96177.28;;;4.95;97.10
72210;BME280;60113;48.762;12.302;2023-04-15T10:36:12;96189.38;;;4.96;97.56
72210;BME280;60113;48.762;12.302;2023-04-15T10:38:56;96189.06;;;5.00;99.32
72210;BME280;60113;48.762;12.302;2023-04-15T10:41:26;96189.75;;;5.03;99.22
72210;BME280;60113;48.762;12.302;2023-04-15T10:44:12;96190.38;;;5.06;97.83
72210;BME280;60113;48.762;12.302;2023-04-15T10:46:42;96194.75;;;5.06;97.74
72210;BME280;60113;48.762;12.302;2023-04-15T10:49:29;96191.53;;;5.02;98.01
72210;BME280;60113;48.762;12.302;2023-04-15T10:52:15;96190.81;;;5.00;98.27
72210;BME280;60113;48.762;12.302;2023-04-15T10:54:42;96187.47;;;4.98;98.48
72210;BME280;60113;48.762;12.302;2023-04-15T10:57:13;96188.41;;;4.97;99.42
72210;BME280;60113;48.762;12.302;2023-04-15T11:00:02;96189.38;;;4.96;100.00
72210;BME280;60113;48.762;12.302;2023-04-15T11:07:46;96195.72;;;4.92;100.00
72210;BME280;60113;48.762;12.302;2023-04-15T11:10:50;96195.47;;;5.08;100.00
72210;BME280;60113;48.762;12.302;2023-04-15T11:13:56;96193.09;;;5.29;96.55
72210;BME280;60113;48.762;12.302;2023-04-15T11:16:22;96193.00;;;5.55;97.69
72210;BME280;60113;48.762;12.302;2023-04-15T11:18:59;96199.47;;;5.74;96.35
72210;BME280;60113;48.762;12.302;2023-04-15T11:22:10;96201.22;;;5.98;95.62
72210;BME280;60113;48.762;12.302;2023-04-15T11:25:03;96198.88;;;6.06;92.65
72210;BME280;60113;48.762;12.302;2023-04-15T11:27:48;96205.91;;;6.17;95.12
72210;BME280;60113;48.762;12.302;2023-04-15T11:30:26;96209.38;;;6.18;93.90
72210;BME280;60113;48.762;12.302;2023-04-15T11:32:58;96216.81;;;6.11;92.17
72210;BME280;60113;48.762;12.302;2023-04-15T11:35:23;96221.97;;;5.99;91.91
72210;BME280;60113;48.762;12.302;2023-04-15T11:41:36;96224.66;;;5.86;91.80
72210;BME280;60113;48.762;12.302;2023-04-15T11:44:20;96229.84;;;5.86;92.80
72210;BME280;60113;48.762;12.302;2023-04-15T11:47:35;96232.34;;;5.88;91.10
72210;BME280;60113;48.762;12.302;2023-04-15T11:50:22;96226.47;;;5.97;90.82
72210;BME280;60113;48.762;12.302;2023-04-15T11:52:54;96227.88;;;6.01;90.82
72210;BME280;60113;48.762;12.302;2023-04-15T11:55:20;96232.69;;;6.08;89.60
72210;BME280;60113;48.762;12.302;2023-04-15T11:58:28;96238.63;;;6.10;88.26
72210;BME280;60113;48.762;12.302;2023-04-15T12:05:27;96241.97;;;6.12;88.46
72210;BME280;60113;48.762;12.302;2023-04-15T12:11:49;96255.81;;;6.12;87.29
72210;BME280;60113;48.762;12.302;2023-04-15T12:17:57;96257.91;;;6.32;88.10
72210;BME280;60113;48.762;12.302;2023-04-15T12:21:09;96256.72;;;6.36;88.24
72210;BME280;60113;48.762;12.302;2023-04-15T12:24:53;96257.91;;;6.32;86.10
72210;BME280;60113;48.762;12.302;2023-04-15T12:28:16;96260.50;;;6.32;86.71
72210;BME280;60113;48.762;12.302;2023-04-15T12:31:19;96250.06;;;6.32;86.30
72210;BME280;60113;48.762;12.302;2023-04-15T12:49:08;96273.63;;;6.19;87.40
72210;BME280;60113;48.762;12.302;2023-04-15T12:52:39;96280.41;;;6.21;86.84
72210;BME280;60113;48.762;12.302;2023-04-15T12:55:50;96284.66;;;6.22;88.30
72210;BME280;60113;48.762;12.302;2023-04-15T12:58:36;96282.06;;;6.22;87.97
72210;BME280;60113;48.762;12.302;2023-04-15T13:01:01;96284.78;;;6.21;87.70
72210;BME280;60113;48.762;12.302;2023-04-15T13:25:47;96322.25;;;5.95;88.90
72210;BME280;60113;48.762;12.302;2023-04-15T13:28:12;96327.47;;;5.95;89.56
72210;BME280;60113;48.762;12.302;2023-04-15T13:30:38;96319.75;;;5.94;89.61
72210;BME280;60113;48.762;12.302;2023-04-15T13:33:04;96330.28;;;5.92;90.16
72210;BME280;60113;48.762;12.302;2023-04-15T13:35:31;96333.00;;;5.91;89.95
72210;BME280;60113;48.762;12.302;2023-04-15T13:37:56;96340.84;;;5.91;90.20
72210;BME280;60113;48.762;12.302;2023-04-15T13:40:22;96340.94;;;5.89;90.80
72210;BME280;60113;48.762;12.302;2023-04-15T13:42:47;96342.19;;;5.83;90.74
72210;BME280;60113;48.762;12.302;2023-04-15T13:45:13;96343.56;;;5.76;92.09
72210;BME280;60113;48.762;12.302;2023-04-15T13:47:39;96347.56;;;5.69;91.83
72210;BME280;60113;48.762;12.302;2023-04-15T13:50:05;96351.03;;;5.56;92.15
72210;BME280;60113;48.762;12.302;2023-04-15T13:52:31;96343.97;;;5.45;93.14
72210;BME280;60113;48.762;12.302;2023-04-15T14:00:07;96348.78;;;5.38;93.38
72210;BME280;60113;48.762;12.302;2023-04-15T14:02:33;96351.38;;;5.38;93.54
72210;BME280;60113;48.762;12.302;2023-04-15T14:04:58;96357.31;;;5.41;94.10
72210;BME280;60113;48.762;12.302;2023-04-15T14:07:24;96360.94;;;5.38;94.23
72210;BME280;60113;48.762;12.302;2023-04-15T14:09:49;96363.34;;;5.41;94.04
72210;BME280;60113;48.762;12.302;2023-04-15T14:12:15;96365.75;;;5.44;93.62
72210;BME280;60113;48.762;12.302;2023-04-15T14:14:40;96363.13;;;5.44;94.37
72210;BME280;60113;48.762;12.302;2023-04-15T14:17:06;96365.75;;;5.44;94.21
72210;BME280;60113;48.762;12.302;2023-04-15T14:19:32;96375.34;;;5.44;94.80
72210;BME280;60113;48.762;12.302;2023-04-15T14:21:57;96373.56;;;5.44;94.31
72210;BME280;60113;48.762;12.302;2023-04-15T14:24:23;96383.06;;;5.45;95.11
72210;BME280;60113;48.762;12.302;2023-04-15T14:26:49;96371.91;;;5.43;95.65
72210;BME280;60113;48.762;12.302;2023-04-15T14:29:14;96384.09;;;5.43;95.78
72210;BME280;60113;48.762;12.302;2023-04-15T14:31:40;96384.09;;;5.43;95.32
72210;BME280;60113;48.762;12.302;2023-04-15T14:34:17;96380.66;;;5.42;95.28
72210;BME280;60113;48.762;12.302;2023-04-15T14:36:42;96385.13;;;5.40;95.93
72210;BME280;60113;48.762;12.302;2023-04-15T14:39:08;96389.50;;;5.40;96.31